createdAt,value
2023-01-31T00:00:52.460Z,30.77
2023-01-31T00:03:21.218Z,21.93
2023-01-31T00:05:50.292Z,19.70
2023-01-31T00:08:20.877Z,21.17
2023-01-31T00:10:49.634Z,24.03
2023-01-31T00:13:18.167Z,16.27
2023-01-31T00:15:47.327Z,21.73
2023-01-31T00:18:15.955Z,29.10
2023-01-31T00:20:44.521Z,30.97
2023-01-31T00:23:15.990Z,23.00
2023-01-31T00:25:46.000Z,22.33
2023-01-31T00:28:14.524Z,23.80
2023-01-31T00:30:43.187Z,32.17
2023-01-31T00:33:11.701Z,16.97
2023-01-31T00:35:42.108Z,23.77
2023-01-31T00:38:10.978Z,26.23
2023-01-31T00:40:39.904Z,24.83
2023-01-31T00:43:09.918Z,22.67
2023-01-31T00:45:38.457Z,23.50
2023-01-31T00:48:07.068Z,15.53
2023-01-31T00:50:36.758Z,23.73
2023-01-31T00:53:05.900Z,23.20
2023-01-31T00:55:35.174Z,22.03
2023-01-31T00:58:04.130Z,25.63
2023-01-31T01:00:35.033Z,20.13
2023-01-31T01:03:03.846Z,27.07
2023-01-31T01:05:32.864Z,17.37
2023-01-31T01:08:01.605Z,22.53
2023-01-31T01:10:30.175Z,23.20
2023-01-31T01:12:59.219Z,31.50
2023-01-31T01:15:28.373Z,17.33
2023-01-31T01:17:58.613Z,18.60
2023-01-31T01:20:27.133Z,19.13
2023-01-31T01:22:56.034Z,22.20
2023-01-31T01:25:24.659Z,21.90
2023-01-31T01:27:53.272Z,24.10
2023-01-31T01:30:22.451Z,19.37
2023-01-31T01:32:51.244Z,24.07
2023-01-31T01:35:21.512Z,31.43
2023-01-31T01:37:50.271Z,19.77
2023-01-31T01:40:19.253Z,26.40
2023-01-31T01:42:47.888Z,18.93
2023-01-31T01:45:18.860Z,23.03
2023-01-31T01:47:50.806Z,30.27
2023-01-31T01:50:26.239Z,20.27
2023-01-31T01:52:57.962Z,18.67
2023-01-31T01:55:31.749Z,26.23
2023-01-31T01:58:04.721Z,18.60
2023-01-31T02:00:35.121Z,21.17
2023-01-31T02:03:06.479Z,30.27
2023-01-31T02:05:39.459Z,18.53
2023-01-31T02:08:08.231Z,18.63
2023-01-31T02:10:43.564Z,20.73
2023-01-31T02:13:13.432Z,18.33
2023-01-31T02:15:42.032Z,21.03
2023-01-31T02:18:11.280Z,15.53
2023-01-31T02:21:26.498Z,18.53
2023-01-31T02:24:22.708Z,21.03
2023-01-31T02:27:19.519Z,26.43
2023-01-31T02:30:05.837Z,22.60
2023-01-31T02:32:54.061Z,23.33
2023-01-31T02:35:35.750Z,26.97
2023-01-31T02:38:16.658Z,26.97
2023-01-31T02:40:51.648Z,23.40
2023-01-31T02:43:26.614Z,22.30
2023-01-31T02:46:06.557Z,19.20
2023-01-31T02:48:47.932Z,25.47
2023-01-31T02:51:23.017Z,20.90
2023-01-31T02:53:55.453Z,16.20
2023-01-31T02:56:26.699Z,19.00
2023-01-31T02:59:00.530Z,17.03
2023-01-31T03:01:31.630Z,23.60
2023-01-31T03:04:05.492Z,22.27
2023-01-31T03:07:02.887Z,23.37
2023-01-31T03:09:36.997Z,18.77
2023-01-31T03:12:23.495Z,16.63
2023-01-31T03:15:02.823Z,20.77
2023-01-31T03:17:39.018Z,20.93
2023-01-31T03:20:13.756Z,14.27
2023-01-31T03:22:45.235Z,16.10
2023-01-31T03:25:17.214Z,17.23
2023-01-31T03:27:50.385Z,22.73
2023-01-31T03:30:22.929Z,14.57
2023-01-31T03:32:54.920Z,16.40
2023-01-31T03:35:29.498Z,19.73
2023-01-31T03:38:06.256Z,22.63
2023-01-31T03:40:42.736Z,17.13
2023-01-31T03:43:20.864Z,19.67
2023-01-31T03:45:55.231Z,14.77
2023-01-31T03:48:27.892Z,21.43
2023-01-31T03:51:01.739Z,19.80
2023-01-31T03:53:36.161Z,20.17
2023-01-31T03:56:14.576Z,21.73
2023-01-31T03:58:47.782Z,19.60
2023-01-31T04:01:19.087Z,21.87
2023-01-31T04:03:53.785Z,23.07
2023-01-31T04:06:23.951Z,19.50
2023-01-31T04:08:52.549Z,16.57
2023-01-31T04:11:23.453Z,22.23
2023-01-31T04:13:51.977Z,16.80
2023-01-31T04:16:20.934Z,20.03
2023-01-31T04:18:49.492Z,20.00
2023-01-31T04:21:17.916Z,17.80
2023-01-31T04:23:47.880Z,19.67
2023-01-31T04:26:16.688Z,20.03
2023-01-31T04:28:45.277Z,24.50
2023-01-31T04:31:14.650Z,24.70
2023-01-31T04:33:43.208Z,24.00
2023-01-31T04:36:11.944Z,23.57
2023-01-31T04:38:40.481Z,33.27
2023-01-31T04:41:10.794Z,24.67
2023-01-31T04:43:39.322Z,22.07
2023-01-31T04:46:07.901Z,24.07
2023-01-31T04:48:36.814Z,26.47
2023-01-31T04:51:05.521Z,23.27
2023-01-31T04:53:34.173Z,26.20
2023-01-31T04:56:02.711Z,28.17
2023-01-31T04:58:33.646Z,25.53
2023-01-31T05:01:02.178Z,30.03
2023-01-31T05:03:30.700Z,28.17
2023-01-31T05:05:59.263Z,25.37
2023-01-31T05:08:27.746Z,28.87
2023-01-31T05:11:01.086Z,32.93
2023-01-31T05:13:37.939Z,27.20
2023-01-31T05:16:08.904Z,28.20
2023-01-31T05:18:38.460Z,31.13
2023-01-31T05:21:08.055Z,33.93
2023-01-31T05:23:37.008Z,32.83
2023-01-31T05:26:06.975Z,29.17
2023-01-31T05:28:37.462Z,26.10
2023-01-31T05:31:09.602Z,29.63
2023-01-31T05:33:38.285Z,30.63
2023-01-31T05:36:07.395Z,24.83
2023-01-31T05:38:36.022Z,34.07
2023-01-31T05:41:04.981Z,27.10
2023-01-31T05:43:36.062Z,25.27
2023-01-31T05:46:06.546Z,26.43
2023-01-31T05:48:35.053Z,34.67
2023-01-31T05:51:03.589Z,25.77
2023-01-31T05:53:32.442Z,24.63
2023-01-31T05:56:01.603Z,25.27
2023-01-31T05:58:30.253Z,27.90
2023-01-31T06:00:58.815Z,32.30
2023-01-31T06:03:28.841Z,27.10
2023-01-31T06:05:57.734Z,29.13
2023-01-31T06:08:26.451Z,33.50
2023-01-31T06:10:54.950Z,24.47
2023-01-31T06:13:23.484Z,29.90
2023-01-31T06:15:52.398Z,31.57
2023-01-31T06:18:20.960Z,29.77
2023-01-31T06:20:50.929Z,27.53
2023-01-31T06:23:19.935Z,23.63
2023-01-31T06:25:50.883Z,33.07
2023-01-31T06:28:19.820Z,24.13
2023-01-31T06:30:48.554Z,30.27
2023-01-31T06:33:18.069Z,26.50
2023-01-31T06:35:46.682Z,27.57
2023-01-31T06:38:17.801Z,25.80
2023-01-31T06:40:46.392Z,23.97
2023-01-31T06:43:15.299Z,28.87
2023-01-31T06:45:45.314Z,27.20
2023-01-31T06:48:14.330Z,24.13
2023-01-31T06:50:43.230Z,19.93
2023-01-31T06:53:12.216Z,23.00
2023-01-31T06:55:42.256Z,19.90
2023-01-31T06:58:10.836Z,24.77
2023-01-31T07:00:39.552Z,23.07
2023-01-31T07:03:09.087Z,29.63
2023-01-31T07:05:37.812Z,28.03
2023-01-31T07:08:06.976Z,24.60
2023-01-31T07:10:35.661Z,25.37
2023-01-31T07:13:06.209Z,26.93
2023-01-31T07:15:34.716Z,26.20
2023-01-31T07:18:03.375Z,20.30
2023-01-31T07:20:32.351Z,27.13
2023-01-31T07:23:01.504Z,24.33
2023-01-31T07:25:32.603Z,24.33
2023-01-31T07:28:01.348Z,28.23
2023-01-31T07:30:32.078Z,26.43
2023-01-31T07:33:02.773Z,24.13
2023-01-31T07:35:32.254Z,24.00
2023-01-31T07:38:00.750Z,25.23
2023-01-31T07:40:29.812Z,28.20
2023-01-31T07:43:00.505Z,19.93
2023-01-31T07:45:31.003Z,25.97
2023-01-31T07:48:00.921Z,25.70
2023-01-31T07:50:29.969Z,25.23
2023-01-31T07:52:59.842Z,26.60
2023-01-31T07:55:28.564Z,25.90
2023-01-31T07:57:57.241Z,21.77
2023-01-31T08:00:43.401Z,25.53
2023-01-31T08:03:34.849Z,23.43
2023-01-31T08:06:05.513Z,23.27
2023-01-31T08:08:34.307Z,22.60
2023-01-31T08:11:05.221Z,23.43
2023-01-31T08:13:33.953Z,20.73
2023-01-31T08:16:03.117Z,24.27
2023-01-31T08:18:33.307Z,21.07
2023-01-31T08:21:02.395Z,21.10
2023-01-31T08:23:31.973Z,26.67
2023-01-31T08:26:05.919Z,26.90
2023-01-31T08:28:36.402Z,23.40
2023-01-31T08:31:09.552Z,24.10
2023-01-31T08:33:40.133Z,31.80
2023-01-31T08:36:14.076Z,22.90
2023-01-31T08:38:43.137Z,25.33
2023-01-31T08:41:11.942Z,30.83
2023-01-31T08:43:54.899Z,26.07
2023-01-31T08:46:26.166Z,24.40
2023-01-31T08:48:57.517Z,22.47
2023-01-31T08:51:26.208Z,27.60
2023-01-31T08:53:55.284Z,32.47
2023-01-31T08:56:26.346Z,32.47
2023-01-31T08:58:55.575Z,32.27
2023-01-31T09:01:25.019Z,52.50
2023-01-31T09:03:57.336Z,75.20
2023-01-31T09:06:29.176Z,29.03
2023-01-31T09:08:59.730Z,35.67
2023-01-31T09:11:30.789Z,34.87
2023-01-31T09:14:01.101Z,28.53
2023-01-31T09:16:30.095Z,26.57
2023-01-31T09:18:58.918Z,33.57
2023-01-31T09:21:30.154Z,37.00
2023-01-31T09:24:04.187Z,30.47
2023-01-31T09:26:33.589Z,30.30
2023-01-31T09:29:02.927Z,29.57
2023-01-31T09:31:32.198Z,25.23
2023-01-31T09:34:01.795Z,22.63
2023-01-31T09:36:32.367Z,25.40
2023-01-31T09:39:01.580Z,27.27
2023-01-31T09:41:35.107Z,28.40
2023-01-31T09:44:08.189Z,25.37
2023-01-31T09:46:41.694Z,26.47
2023-01-31T09:49:16.917Z,25.60
2023-01-31T09:51:53.060Z,25.43
2023-01-31T09:54:28.359Z,21.97
2023-01-31T09:57:03.833Z,20.03
2023-01-31T09:59:43.672Z,21.97
2023-01-31T10:02:26.334Z,21.77
2023-01-31T10:05:13.142Z,27.13
2023-01-31T10:07:50.999Z,21.63
2023-01-31T10:10:31.235Z,24.23
2023-01-31T10:13:03.517Z,18.03
2023-01-31T10:15:40.556Z,20.83
2023-01-31T10:18:15.488Z,18.87
2023-01-31T10:20:53.452Z,17.67
2023-01-31T10:23:30.609Z,22.40
2023-01-31T10:26:02.803Z,20.43
2023-01-31T10:28:38.282Z,19.37
2023-01-31T10:31:13.518Z,21.83
2023-01-31T10:33:50.129Z,22.40
2023-01-31T10:36:28.048Z,20.80
2023-01-31T10:39:06.091Z,19.33
2023-01-31T10:41:46.095Z,20.33
2023-01-31T10:44:25.808Z,18.60
2023-01-31T10:46:58.515Z,18.87
2023-01-31T10:49:29.270Z,18.20
2023-01-31T10:52:18.678Z,19.03
2023-01-31T10:54:58.440Z,20.83
2023-01-31T10:57:27.805Z,28.73
2023-01-31T10:59:57.513Z,21.67
2023-01-31T11:02:30.224Z,21.50
2023-01-31T11:05:01.277Z,20.83
2023-01-31T11:07:32.081Z,23.23
2023-01-31T11:10:22.473Z,22.37
2023-01-31T11:12:55.507Z,21.23
2023-01-31T11:15:28.622Z,25.83
2023-01-31T11:18:03.138Z,26.90
2023-01-31T11:20:35.779Z,32.43
2023-01-31T11:23:07.296Z,21.80
2023-01-31T11:25:37.670Z,25.80
2023-01-31T11:28:22.713Z,19.10
2023-01-31T11:30:53.787Z,15.73
2023-01-31T11:33:44.410Z,18.57
2023-01-31T11:36:14.979Z,20.43
2023-01-31T11:38:44.052Z,17.90
2023-01-31T11:41:35.436Z,16.50
2023-01-31T11:44:15.664Z,17.67
2023-01-31T11:46:57.815Z,16.47
2023-01-31T11:49:37.578Z,14.53
2023-01-31T11:52:16.545Z,17.77
2023-01-31T11:54:48.745Z,56.50
2023-01-31T11:57:24.191Z,21.27
2023-01-31T11:59:56.765Z,15.70
2023-01-31T12:02:34.602Z,17.33
2023-01-31T12:05:28.464Z,18.07
2023-01-31T12:07:58.088Z,17.17
2023-01-31T12:10:35.643Z,17.07
2023-01-31T12:13:19.179Z,17.10
2023-01-31T12:15:57.359Z,17.77
2023-01-31T12:18:51.274Z,16.93
2023-01-31T12:21:36.330Z,19.63
2023-01-31T12:24:18.743Z,17.10
2023-01-31T12:26:55.784Z,15.33
2023-01-31T12:30:00.601Z,17.70
2023-01-31T12:32:45.435Z,17.77
2023-01-31T12:36:03.461Z,21.83
2023-01-31T12:39:03.476Z,17.77
2023-01-31T12:41:35.433Z,16.50
2023-01-31T12:44:26.693Z,17.67
2023-01-31T12:47:17.339Z,14.67
2023-01-31T12:50:33.271Z,19.33
2023-01-31T12:53:27.035Z,31.03
2023-01-31T12:56:07.779Z,51.23
2023-01-31T12:58:44.743Z,22.23
2023-01-31T13:01:18.321Z,20.20
2023-01-31T13:04:17.898Z,27.80
2023-01-31T13:06:53.054Z,24.23
2023-01-31T13:09:30.249Z,22.37
2023-01-31T13:12:04.163Z,26.03
2023-01-31T13:14:39.166Z,28.50
2023-01-31T13:17:12.428Z,27.37
2023-01-31T13:19:51.462Z,25.83
2023-01-31T13:22:25.424Z,25.13
2023-01-31T13:25:15.846Z,26.70
2023-01-31T13:27:52.106Z,25.57
2023-01-31T13:30:30.767Z,21.63
2023-01-31T13:33:10.077Z,21.00
2023-01-31T13:35:44.882Z,28.37
2023-01-31T13:38:20.885Z,23.73
2023-01-31T13:40:58.032Z,27.00
2023-01-31T13:43:31.006Z,25.03
2023-01-31T13:46:08.760Z,30.40
2023-01-31T13:48:44.241Z,24.70
2023-01-31T13:51:23.210Z,29.47
2023-01-31T13:53:56.560Z,27.23
2023-01-31T13:56:28.448Z,30.90
2023-01-31T13:58:58.505Z,30.60
2023-01-31T14:01:30.379Z,31.13
2023-01-31T14:04:35.586Z,26.83
2023-01-31T14:07:26.769Z,27.37
2023-01-31T14:10:28.946Z,29.10
2023-01-31T14:13:40.373Z,31.97
2023-01-31T14:16:35.760Z,27.83
2023-01-31T14:19:05.281Z,30.70
2023-01-31T14:21:58.459Z,28.00
2023-01-31T14:25:11.027Z,30.77
2023-01-31T14:28:04.795Z,30.40
2023-01-31T14:30:44.238Z,30.87
2023-01-31T14:33:25.074Z,26.50
2023-01-31T14:36:40.304Z,32.00
2023-01-31T14:39:56.969Z,31.63
2023-01-31T14:43:09.974Z,31.57
2023-01-31T14:45:53.640Z,32.53
2023-01-31T14:48:40.624Z,34.60
2023-01-31T14:51:19.398Z,34.13
2023-01-31T14:54:15.909Z,33.37
2023-01-31T14:57:05.085Z,29.53
2023-01-31T14:59:36.474Z,31.40
2023-01-31T15:02:39.684Z,34.30
2023-01-31T15:05:13.411Z,39.17
2023-01-31T15:08:03.820Z,32.30
2023-01-31T15:11:03.137Z,33.53
2023-01-31T15:13:39.580Z,34.50
2023-01-31T15:16:12.797Z,38.70
2023-01-31T15:18:48.313Z,36.00
2023-01-31T15:21:25.712Z,33.13
2023-01-31T15:23:56.091Z,33.93
2023-01-31T15:26:29.015Z,39.97
2023-01-31T15:28:59.304Z,39.13
2023-01-31T15:31:34.082Z,36.67
2023-01-31T15:34:15.574Z,39.93
2023-01-31T15:36:48.733Z,38.70
2023-01-31T15:39:30.090Z,37.70
2023-01-31T15:41:58.760Z,36.80
2023-01-31T15:44:29.460Z,35.57
2023-01-31T15:47:01.076Z,37.37
2023-01-31T15:49:40.306Z,36.60
2023-01-31T15:52:18.359Z,41.97
2023-01-31T15:54:58.399Z,41.00
2023-01-31T15:57:30.852Z,37.33
2023-01-31T16:00:00.163Z,41.50
2023-01-31T16:02:31.836Z,36.73
2023-01-31T16:05:03.084Z,37.27
2023-01-31T16:07:32.629Z,39.00
2023-01-31T16:10:03.710Z,46.17
2023-01-31T16:12:34.998Z,41.90
2023-01-31T16:15:08.998Z,34.67
2023-01-31T16:17:37.988Z,42.67
2023-01-31T16:20:33.852Z,42.93
2023-01-31T16:23:02.965Z,46.87
2023-01-31T16:25:39.566Z,42.60
2023-01-31T16:28:13.481Z,33.13
2023-01-31T16:30:47.196Z,36.93
2023-01-31T16:33:22.717Z,32.47
2023-01-31T16:36:13.668Z,31.03
2023-01-31T16:38:59.125Z,30.57
2023-01-31T16:41:45.076Z,46.93
2023-01-31T16:44:20.185Z,30.00
2023-01-31T16:46:51.389Z,34.87
2023-01-31T16:49:23.746Z,39.10
2023-01-31T16:51:57.308Z,31.43
2023-01-31T16:54:31.483Z,34.30
2023-01-31T16:57:24.273Z,38.63
2023-01-31T16:59:54.845Z,26.37
2023-01-31T17:02:27.230Z,33.50
2023-01-31T17:05:19.292Z,33.53
2023-01-31T17:07:54.020Z,30.87
2023-01-31T17:10:30.268Z,32.60
2023-01-31T17:13:18.304Z,31.23
2023-01-31T17:15:57.325Z,30.03
2023-01-31T17:18:26.554Z,32.07
2023-01-31T17:20:56.293Z,35.23
2023-01-31T17:23:27.041Z,30.00
2023-01-31T17:25:56.633Z,31.17
2023-01-31T17:28:25.746Z,33.83
2023-01-31T17:30:58.255Z,28.60
2023-01-31T17:33:27.641Z,60.20
2023-01-31T17:36:02.558Z,28.37
2023-01-31T17:38:39.110Z,31.80
2023-01-31T17:41:20.599Z,29.27
2023-01-31T17:43:49.923Z,35.77
2023-01-31T17:46:22.360Z,31.43
2023-01-31T17:48:51.337Z,30.37
2023-01-31T17:51:20.929Z,26.17
2023-01-31T17:53:51.466Z,29.77
2023-01-31T17:56:27.519Z,31.73
2023-01-31T17:59:02.656Z,30.37
2023-01-31T18:01:35.242Z,30.10
2023-01-31T18:04:10.587Z,29.77
2023-01-31T18:06:49.238Z,32.40
2023-01-31T18:09:21.170Z,24.20
2023-01-31T18:11:55.343Z,25.57
2023-01-31T18:14:24.497Z,24.50
2023-01-31T18:16:54.535Z,20.07
2023-01-31T18:19:28.123Z,24.50
2023-01-31T18:22:00.937Z,25.27
2023-01-31T18:24:35.047Z,26.37
2023-01-31T18:27:09.577Z,50.70
2023-01-31T18:29:38.504Z,31.40
2023-01-31T18:32:12.275Z,30.57
2023-01-31T18:34:41.498Z,38.37
2023-01-31T18:37:17.649Z,26.30
2023-01-31T18:39:52.070Z,30.33
2023-01-31T18:42:22.126Z,29.27
2023-01-31T18:44:51.213Z,37.23
2023-01-31T18:47:25.742Z,34.97
2023-01-31T18:50:04.558Z,38.63
2023-01-31T18:52:34.091Z,48.13
2023-01-31T18:55:15.434Z,28.90
2023-01-31T18:57:46.036Z,33.20
2023-01-31T19:00:21.400Z,36.60
2023-01-31T19:03:30.517Z,28.97
2023-01-31T19:06:07.324Z,28.40
2023-01-31T19:08:37.237Z,34.50
2023-01-31T19:11:09.806Z,27.93
2023-01-31T19:13:43.833Z,24.53
2023-01-31T19:16:27.273Z,25.10
2023-01-31T19:18:57.524Z,32.50
2023-01-31T19:21:32.067Z,22.20
2023-01-31T19:24:06.953Z,21.37
2023-01-31T19:26:51.734Z,32.90
2023-01-31T19:29:23.612Z,35.13
2023-01-31T19:31:56.259Z,38.37
2023-01-31T19:34:36.667Z,24.93
2023-01-31T19:37:30.028Z,31.43
2023-01-31T19:39:58.853Z,25.23
2023-01-31T19:42:31.479Z,23.20
2023-01-31T19:45:06.688Z,23.83
2023-01-31T19:47:35.745Z,26.27
2023-01-31T19:50:17.699Z,20.70
2023-01-31T19:55:39.873Z,26.63
2023-01-31T19:58:13.462Z,22.93
2023-01-31T20:00:45.691Z,26.60
2023-01-31T20:03:15.388Z,27.60
2023-01-31T20:05:48.062Z,20.70
2023-01-31T20:08:30.074Z,29.27
2023-01-31T20:11:08.801Z,20.80
2023-01-31T20:13:42.511Z,21.70
2023-01-31T20:16:17.673Z,19.97
2023-01-31T20:18:47.919Z,20.87
2023-01-31T20:21:19.213Z,23.53
2023-01-31T20:23:53.474Z,22.30
2023-01-31T20:26:24.801Z,20.40
2023-01-31T20:29:13.870Z,27.43
2023-01-31T20:31:43.060Z,22.47
2023-01-31T20:34:13.620Z,23.80
2023-01-31T20:36:46.251Z,23.40
2023-01-31T20:39:20.846Z,17.53
2023-01-31T20:41:50.816Z,23.50
2023-01-31T20:44:24.503Z,26.70
2023-01-31T20:46:53.770Z,19.10
2023-01-31T20:49:34.222Z,21.67
2023-01-31T20:52:11.679Z,23.37
2023-01-31T20:54:47.639Z,25.33
2023-01-31T20:57:21.863Z,19.97
2023-01-31T20:59:54.721Z,22.97
2023-01-31T21:02:23.515Z,25.13
2023-01-31T21:04:53.200Z,19.90
2023-01-31T21:07:26.351Z,20.07
2023-01-31T21:09:56.851Z,20.23
2023-01-31T21:12:30.746Z,18.77
2023-01-31T21:15:06.899Z,20.57
2023-01-31T21:17:40.204Z,21.27
2023-01-31T21:20:17.205Z,20.57
2023-01-31T21:22:46.379Z,26.30
2023-01-31T21:25:16.057Z,21.10
2023-01-31T21:27:52.549Z,28.80
2023-01-31T21:30:29.302Z,24.83
2023-01-31T21:32:58.535Z,22.67
2023-01-31T21:35:36.059Z,22.47
2023-01-31T21:38:10.960Z,25.40
2023-01-31T21:40:41.066Z,21.73
2023-01-31T21:43:08.607Z,22.03
2023-01-31T21:45:44.402Z,22.23
2023-01-31T21:48:31.205Z,22.67
2023-01-31T21:51:07.650Z,20.23
2023-01-31T21:53:37.901Z,22.80
2023-01-31T21:56:15.476Z,22.93
2023-01-31T21:58:44.802Z,21.17
2023-01-31T22:01:19.450Z,22.30
2023-01-31T22:03:53.333Z,25.10
2023-01-31T22:06:25.916Z,17.47
2023-01-31T22:08:56.665Z,17.07
2023-01-31T22:11:28.683Z,21.47
2023-01-31T22:13:57.839Z,23.30
2023-01-31T22:16:28.279Z,23.80
2023-01-31T22:18:57.156Z,22.43
2023-01-31T22:21:35.241Z,19.30
2023-01-31T22:24:11.824Z,28.23
2023-01-31T22:26:42.711Z,22.50
2023-01-31T22:29:13.524Z,19.03
2023-01-31T22:31:49.284Z,21.67
2023-01-31T22:34:18.526Z,21.60
2023-01-31T22:36:48.222Z,19.17
2023-01-31T22:39:17.096Z,26.73
2023-01-31T22:41:45.936Z,22.63
2023-01-31T22:44:15.082Z,23.03
2023-01-31T22:46:46.956Z,20.30
2023-01-31T22:49:15.776Z,25.47
2023-01-31T22:51:44.490Z,24.67
2023-01-31T22:54:14.819Z,23.80
2023-01-31T22:56:44.405Z,20.20
2023-01-31T22:59:13.193Z,22.80
2023-01-31T23:01:41.940Z,21.00
2023-01-31T23:04:14.253Z,27.10
2023-01-31T23:06:42.923Z,28.10
2023-01-31T23:09:11.621Z,23.30
2023-01-31T23:11:41.019Z,26.20
2023-01-31T23:14:09.600Z,26.33
2023-01-31T23:16:55.683Z,25.70
2023-01-31T23:19:25.733Z,34.03
2023-01-31T23:21:54.566Z,36.63
2023-01-31T23:24:25.619Z,26.63
2023-01-31T23:26:56.542Z,24.97
2023-01-31T23:29:25.471Z,32.67
2023-01-31T23:31:54.449Z,34.87
2023-01-31T23:34:24.531Z,31.57
2023-01-31T23:36:53.509Z,30.13
2023-01-31T23:39:22.117Z,31.27
2023-01-31T23:41:50.970Z,34.87
2023-01-31T23:44:19.597Z,38.03
2023-01-31T23:46:48.194Z,25.17
2023-01-31T23:49:17.443Z,26.30
2023-01-31T23:51:47.807Z,26.17
2023-01-31T23:54:16.514Z,18.93
2023-01-31T23:56:45.071Z,27.27
2023-01-31T23:59:13.694Z,26.33
